sensor_id;sensor_type;location;lat;lon;timestamp;P1;durP1;ratioP1;P2;durP2;ratioP2
37973;SDS011;23796;51.458;7.000;2024-02-15T00:01:40;5.90;;;3.72;;
37973;SDS011;23796;51.458;7.000;2024-02-15T00:04:07;6.03;;;3.42;;
37973;SDS011;23796;51.458;7.000;2024-02-15T00:06:35;6.40;;;3.40;;
37973;SDS011;23796;51.458;7.000;2024-02-15T00:09:01;7.53;;;3.42;;
37973;SDS011;23796;51.458;7.000;2024-02-15T00:11:27;7.53;;;3.20;;
37973;SDS011;23796;51.458;7.000;2024-02-15T00:13:53;10.20;;;4.15;;
37973;SDS011;23796;51.458;7.000;2024-02-15T00:16:21;7.82;;;3.92;;
37973;SDS011;23796;51.458;7.000;2024-02-15T00:18:49;6.30;;;3.53;;
37973;SDS011;23796;51.458;7.000;2024-02-15T00:21:15;7.75;;;3.90;;
37973;SDS011;23796;51.458;7.000;2024-02-15T00:23:43;7.28;;;3.90;;
37973;SDS011;23796;51.458;7.000;2024-02-15T00:26:09;7.78;;;3.92;;
37973;SDS011;23796;51.458;7.000;2024-02-15T00:28:36;7.07;;;3.80;;
37973;SDS011;23796;51.458;7.000;2024-02-15T00:31:02;7.53;;;3.65;;
37973;SDS011;23796;51.458;7.000;2024-02-15T00:33:28;8.63;;;3.75;;
37973;SDS011;23796;51.458;7.000;2024-02-15T00:35:57;6.18;;;4.13;;
37973;SDS011;23796;51.458;7.000;2024-02-15T00:38:23;6.40;;;3.80;;
37973;SDS011;23796;51.458;7.000;2024-02-15T00:40:48;7.15;;;3.90;;
37973;SDS011;23796;51.458;7.000;2024-02-15T00:43:14;7.90;;;3.55;;
37973;SDS011;23796;51.458;7.000;2024-02-15T00:45:39;10.40;;;3.60;;
37973;SDS011;23796;51.458;7.000;2024-02-15T00:48:06;9.70;;;4.88;;
37973;SDS011;23796;51.458;7.000;2024-02-15T00:50:31;6.93;;;3.95;;
37973;SDS011;23796;51.458;7.000;2024-02-15T00:52:57;9.25;;;4.22;;
37973;SDS011;23796;51.458;7.000;2024-02-15T00:55:23;7.75;;;4.07;;
37973;SDS011;23796;51.458;7.000;2024-02-15T00:57:50;7.50;;;4.30;;
37973;SDS011;23796;51.458;7.000;2024-02-15T01:00:16;8.35;;;4.63;;
37973;SDS011;23796;51.458;7.000;2024-02-15T01:02:42;7.05;;;4.25;;
37973;SDS011;23796;51.458;7.000;2024-02-15T01:05:07;9.10;;;4.00;;
37973;SDS011;23796;51.458;7.000;2024-02-15T01:07:34;10.50;;;5.00;;
37973;SDS011;23796;51.458;7.000;2024-02-15T01:10:00;7.18;;;3.90;;
37973;SDS011;23796;51.458;7.000;2024-02-15T01:12:28;10.23;;;4.28;;
37973;SDS011;23796;51.458;7.000;2024-02-15T01:14:54;7.90;;;4.03;;
37973;SDS011;23796;51.458;7.000;2024-02-15T01:17:23;6.25;;;4.05;;
37973;SDS011;23796;51.458;7.000;2024-02-15T01:19:54;9.05;;;4.03;;
37973;SDS011;23796;51.458;7.000;2024-02-15T01:22:20;8.57;;;3.85;;
37973;SDS011;23796;51.458;7.000;2024-02-15T01:24:48;7.00;;;4.32;;
37973;SDS011;23796;51.458;7.000;2024-02-15T01:27:14;7.78;;;3.92;;
37973;SDS011;23796;51.458;7.000;2024-02-15T01:29:39;8.75;;;4.10;;
37973;SDS011;23796;51.458;7.000;2024-02-15T01:32:06;7.35;;;4.20;;
37973;SDS011;23796;51.458;7.000;2024-02-15T01:34:31;9.32;;;4.15;;
37973;SDS011;23796;51.458;7.000;2024-02-15T01:36:57;8.55;;;4.88;;
37973;SDS011;23796;51.458;7.000;2024-02-15T01:39:23;7.32;;;4.10;;
37973;SDS011;23796;51.458;7.000;2024-02-15T01:41:48;7.45;;;3.90;;
37973;SDS011;23796;51.458;7.000;2024-02-15T01:44:16;9.70;;;4.05;;
37973;SDS011;23796;51.458;7.000;2024-02-15T01:46:45;8.95;;;3.70;;
37973;SDS011;23796;51.458;7.000;2024-02-15T01:49:12;10.18;;;4.13;;
37973;SDS011;23796;51.458;7.000;2024-02-15T01:51:38;10.10;;;3.90;;
37973;SDS011;23796;51.458;7.000;2024-02-15T01:54:08;7.88;;;3.70;;
37973;SDS011;23796;51.458;7.000;2024-02-15T01:56:35;7.32;;;4.05;;
37973;SDS011;23796;51.458;7.000;2024-02-15T01:59:01;6.80;;;3.67;;
37973;SDS011;23796;51.458;7.000;2024-02-15T02:01:31;8.82;;;3.63;;
37973;SDS011;23796;51.458;7.000;2024-02-15T02:03:58;9.07;;;4.38;;
37973;SDS011;23796;51.458;7.000;2024-02-15T02:06:24;9.38;;;4.30;;
37973;SDS011;23796;51.458;7.000;2024-02-15T02:08:51;9.73;;;4.00;;
37973;SDS011;23796;51.458;7.000;2024-02-15T02:11:17;7.03;;;3.33;;
37973;SDS011;23796;51.458;7.000;2024-02-15T02:13:43;9.80;;;4.25;;
37973;SDS011;23796;51.458;7.000;2024-02-15T02:16:27;10.00;;;3.53;;
37973;SDS011;23796;51.458;7.000;2024-02-15T02:18:56;8.05;;;3.38;;
37973;SDS011;23796;51.458;7.000;2024-02-15T02:21:25;7.03;;;3.60;;
37973;SDS011;23796;51.458;7.000;2024-02-15T02:24:00;13.07;;;3.75;;
37973;SDS011;23796;51.458;7.000;2024-02-15T02:26:32;9.63;;;3.75;;
37973;SDS011;23796;51.458;7.000;2024-02-15T02:28:59;7.10;;;2.88;;
37973;SDS011;23796;51.458;7.000;2024-02-15T02:31:26;9.40;;;3.47;;
37973;SDS011;23796;51.458;7.000;2024-02-15T02:33:54;6.47;;;3.05;;
37973;SDS011;23796;51.458;7.000;2024-02-15T02:36:23;9.40;;;3.92;;
37973;SDS011;23796;51.458;7.000;2024-02-15T02:38:51;5.47;;;2.63;;
37973;SDS011;23796;51.458;7.000;2024-02-15T02:41:17;6.88;;;2.58;;
37973;SDS011;23796;51.458;7.000;2024-02-15T02:43:44;7.47;;;2.75;;
37973;SDS011;23796;51.458;7.000;2024-02-15T02:46:10;6.57;;;2.80;;
37973;SDS011;23796;51.458;7.000;2024-02-15T02:48:37;6.85;;;2.80;;
37973;SDS011;23796;51.458;7.000;2024-02-15T02:51:03;7.65;;;2.80;;
37973;SDS011;23796;51.458;7.000;2024-02-15T02:53:29;5.97;;;2.50;;
37973;SDS011;23796;51.458;7.000;2024-02-15T02:55:57;7.50;;;3.00;;
37973;SDS011;23796;51.458;7.000;2024-02-15T02:58:23;8.68;;;2.72;;
37973;SDS011;23796;51.458;7.000;2024-02-15T03:00:49;9.23;;;2.60;;
37973;SDS011;23796;51.458;7.000;2024-02-15T03:03:16;7.25;;;2.85;;
37973;SDS011;23796;51.458;7.000;2024-02-15T03:05:42;10.25;;;2.95;;
37973;SDS011;23796;51.458;7.000;2024-02-15T03:08:13;9.63;;;3.20;;
37973;SDS011;23796;51.458;7.000;2024-02-15T03:10:40;7.47;;;3.20;;
37973;SDS011;23796;51.458;7.000;2024-02-15T03:13:06;12.35;;;3.60;;
37973;SDS011;23796;51.458;7.000;2024-02-15T03:15:34;7.03;;;2.80;;
37973;SDS011;23796;51.458;7.000;2024-02-15T03:18:00;8.63;;;3.08;;
37973;SDS011;23796;51.458;7.000;2024-02-15T03:20:31;5.97;;;2.60;;
37973;SDS011;23796;51.458;7.000;2024-02-15T03:22:58;6.07;;;2.00;;
37973;SDS011;23796;51.458;7.000;2024-02-15T03:25:25;5.43;;;2.80;;
37973;SDS011;23796;51.458;7.000;2024-02-15T03:27:54;7.00;;;2.30;;
37973;SDS011;23796;51.458;7.000;2024-02-15T03:30:21;6.20;;;2.80;;
37973;SDS011;23796;51.458;7.000;2024-02-15T03:32:51;5.15;;;2.30;;
37973;SDS011;23796;51.458;7.000;2024-02-15T03:35:18;7.35;;;2.95;;
37973;SDS011;23796;51.458;7.000;2024-02-15T03:37:47;8.07;;;2.80;;
37973;SDS011;23796;51.458;7.000;2024-02-15T03:40:15;6.18;;;2.70;;
37973;SDS011;23796;51.458;7.000;2024-02-15T03:42:44;6.57;;;3.00;;
37973;SDS011;23796;51.458;7.000;2024-02-15T03:45:10;9.00;;;2.88;;
37973;SDS011;23796;51.458;7.000;2024-02-15T03:47:38;9.88;;;3.10;;
37973;SDS011;23796;51.458;7.000;2024-02-15T03:50:04;6.40;;;2.42;;
37973;SDS011;23796;51.458;7.000;2024-02-15T03:52:33;6.20;;;2.70;;
37973;SDS011;23796;51.458;7.000;2024-02-15T03:54:58;7.28;;;2.63;;
37973;SDS011;23796;51.458;7.000;2024-02-15T03:57:24;8.88;;;2.65;;
37973;SDS011;23796;51.458;7.000;2024-02-15T03:59:50;7.25;;;2.67;;
37973;SDS011;23796;51.458;7.000;2024-02-15T04:02:18;7.78;;;2.67;;
37973;SDS011;23796;51.458;7.000;2024-02-15T04:04:46;9.65;;;2.75;;
37973;SDS011;23796;51.458;7.000;2024-02-15T04:07:15;7.55;;;3.08;;
37973;SDS011;23796;51.458;7.000;2024-02-15T04:09:41;7.65;;;2.38;;
37973;SDS011;23796;51.458;7.000;2024-02-15T04:12:07;7.18;;;2.75;;
37973;SDS011;23796;51.458;7.000;2024-02-15T04:14:33;6.25;;;2.70;;
37973;SDS011;23796;51.458;7.000;2024-02-15T04:16:59;5.72;;;2.60;;
37973;SDS011;23796;51.458;7.000;2024-02-15T04:19:26;6.32;;;2.50;;
37973;SDS011;23796;51.458;7.000;2024-02-15T04:21:52;7.13;;;2.47;;
37973;SDS011;23796;51.458;7.000;2024-02-15T04:24:20;7.72;;;2.28;;
37973;SDS011;23796;51.458;7.000;2024-02-15T04:26:46;4.63;;;2.30;;
37973;SDS011;23796;51.458;7.000;2024-02-15T04:29:13;8.07;;;3.05;;
37973;SDS011;23796;51.458;7.000;2024-02-15T04:31:40;4.38;;;1.88;;
37973;SDS011;23796;51.458;7.000;2024-02-15T04:34:07;6.32;;;2.22;;
37973;SDS011;23796;51.458;7.000;2024-02-15T04:36:36;7.20;;;2.10;;
37973;SDS011;23796;51.458;7.000;2024-02-15T04:39:02;7.97;;;2.22;;
37973;SDS011;23796;51.458;7.000;2024-02-15T04:41:29;6.30;;;2.30;;
37973;SDS011;23796;51.458;7.000;2024-02-15T04:43:54;6.25;;;1.90;;
37973;SDS011;23796;51.458;7.000;2024-02-15T04:46:20;8.80;;;2.85;;
37973;SDS011;23796;51.458;7.000;2024-02-15T04:48:47;8.20;;;2.10;;
37973;SDS011;23796;51.458;7.000;2024-02-15T04:51:16;5.60;;;2.42;;
37973;SDS011;23796;51.458;7.000;2024-02-15T04:53:42;5.82;;;1.90;;
37973;SDS011;23796;51.458;7.000;2024-02-15T04:56:08;5.75;;;2.33;;
37973;SDS011;23796;51.458;7.000;2024-02-15T04:58:40;6.30;;;2.30;;
37973;SDS011;23796;51.458;7.000;2024-02-15T05:01:15;6.68;;;2.40;;
37973;SDS011;23796;51.458;7.000;2024-02-15T05:03:42;5.80;;;2.08;;
37973;SDS011;23796;51.458;7.000;2024-02-15T05:06:08;5.75;;;2.00;;
37973;SDS011;23796;51.458;7.000;2024-02-15T05:08:35;5.18;;;1.90;;
37973;SDS011;23796;51.458;7.000;2024-02-15T05:11:07;6.68;;;1.75;;
37973;SDS011;23796;51.458;7.000;2024-02-15T05:13:47;5.53;;;2.50;;
37973;SDS011;23796;51.458;7.000;2024-02-15T05:16:15;5.05;;;1.65;;
37973;SDS011;23796;51.458;7.000;2024-02-15T05:18:41;4.82;;;2.03;;
37973;SDS011;23796;51.458;7.000;2024-02-15T05:21:07;7.82;;;2.10;;
37973;SDS011;23796;51.458;7.000;2024-02-15T05:23:35;4.68;;;2.10;;
37973;SDS011;23796;51.458;7.000;2024-02-15T05:26:02;6.88;;;2.03;;
37973;SDS011;23796;51.458;7.000;2024-02-15T05:28:28;5.45;;;1.80;;
37973;SDS011;23796;51.458;7.000;2024-02-15T05:31:16;5.45;;;1.88;;
37973;SDS011;23796;51.458;7.000;2024-02-15T05:33:43;3.70;;;1.45;;
37973;SDS011;23796;51.458;7.000;2024-02-15T05:36:10;5.97;;;2.33;;
37973;SDS011;23796;51.458;7.000;2024-02-15T05:38:36;4.53;;;1.85;;
37973;SDS011;23796;51.458;7.000;2024-02-15T05:41:02;6.22;;;1.92;;
37973;SDS011;23796;51.458;7.000;2024-02-15T05:43:28;4.00;;;1.73;;
37973;SDS011;23796;51.458;7.000;2024-02-15T05:45:56;5.03;;;1.92;;
37973;SDS011;23796;51.458;7.000;2024-02-15T05:48:24;6.28;;;2.33;;
37973;SDS011;23796;51.458;7.000;2024-02-15T05:50:49;4.60;;;2.05;;
37973;SDS011;23796;51.458;7.000;2024-02-15T05:53:15;5.07;;;2.05;;
37973;SDS011;23796;51.458;7.000;2024-02-15T05:55:41;5.07;;;2.35;;
37973;SDS011;23796;51.458;7.000;2024-02-15T05:58:09;5.45;;;1.75;;
37973;SDS011;23796;51.458;7.000;2024-02-15T06:00:36;4.60;;;1.88;;
37973;SDS011;23796;51.458;7.000;2024-02-15T06:03:05;6.10;;;2.20;;
37973;SDS011;23796;51.458;7.000;2024-02-15T06:05:31;4.40;;;1.88;;
37973;SDS011;23796;51.458;7.000;2024-02-15T06:07:59;5.57;;;1.92;;
37973;SDS011;23796;51.458;7.000;2024-02-15T06:10:25;5.93;;;2.28;;
37973;SDS011;23796;51.458;7.000;2024-02-15T06:12:51;4.70;;;1.80;;
37973;SDS011;23796;51.458;7.000;2024-02-15T06:15:17;4.97;;;1.80;;
37973;SDS011;23796;51.458;7.000;2024-02-15T06:17:42;3.88;;;1.50;;
37973;SDS011;23796;51.458;7.000;2024-02-15T06:20:14;6.50;;;2.13;;
37973;SDS011;23796;51.458;7.000;2024-02-15T06:22:42;5.65;;;1.88;;
37973;SDS011;23796;51.458;7.000;2024-02-15T06:25:09;7.15;;;2.60;;
37973;SDS011;23796;51.458;7.000;2024-02-15T06:27:38;4.93;;;2.20;;
37973;SDS011;23796;51.458;7.000;2024-02-15T06:30:08;6.30;;;2.00;;
37973;SDS011;23796;51.458;7.000;2024-02-15T06:32:53;5.30;;;1.85;;
37973;SDS011;23796;51.458;7.000;2024-02-15T06:35:37;3.65;;;1.45;;
37973;SDS011;23796;51.458;7.000;2024-02-15T06:38:24;4.78;;;1.77;;
37973;SDS011;23796;51.458;7.000;2024-02-15T06:41:08;4.65;;;1.80;;
37973;SDS011;23796;51.458;7.000;2024-02-15T06:43:34;5.20;;;1.80;;
37973;SDS011;23796;51.458;7.000;2024-02-15T06:46:00;7.03;;;2.28;;
37973;SDS011;23796;51.458;7.000;2024-02-15T06:48:27;5.72;;;1.88;;
37973;SDS011;23796;51.458;7.000;2024-02-15T06:50:53;6.72;;;1.60;;
37973;SDS011;23796;51.458;7.000;2024-02-15T06:53:19;4.55;;;1.95;;
37973;SDS011;23796;51.458;7.000;2024-02-15T06:55:48;5.03;;;1.92;;
37973;SDS011;23796;51.458;7.000;2024-02-15T06:58:15;5.85;;;2.03;;
37973;SDS011;23796;51.458;7.000;2024-02-15T07:00:41;4.57;;;1.70;;
37973;SDS011;23796;51.458;7.000;2024-02-15T07:03:10;4.65;;;1.77;;
37973;SDS011;23796;51.458;7.000;2024-02-15T07:05:38;5.28;;;2.15;;
37973;SDS011;23796;51.458;7.000;2024-02-15T07:08:07;5.43;;;2.10;;
37973;SDS011;23796;51.458;7.000;2024-02-15T07:10:36;6.60;;;2.57;;
37973;SDS011;23796;51.458;7.000;2024-02-15T07:13:03;8.63;;;2.72;;
37973;SDS011;23796;51.458;7.000;2024-02-15T07:15:30;5.13;;;1.73;;
37973;SDS011;23796;51.458;7.000;2024-02-15T07:18:02;5.38;;;1.73;;
37973;SDS011;23796;51.458;7.000;2024-02-15T07:20:34;6.20;;;2.00;;
37973;SDS011;23796;51.458;7.000;2024-02-15T07:23:00;8.13;;;1.85;;
37973;SDS011;23796;51.458;7.000;2024-02-15T07:25:25;6.20;;;1.85;;
37973;SDS011;23796;51.458;7.000;2024-02-15T07:27:51;4.13;;;1.42;;
37973;SDS011;23796;51.458;7.000;2024-02-15T07:30:20;4.97;;;1.63;;
37973;SDS011;23796;51.458;7.000;2024-02-15T07:32:49;5.60;;;1.85;;
37973;SDS011;23796;51.458;7.000;2024-02-15T07:35:14;5.05;;;1.88;;
37973;SDS011;23796;51.458;7.000;2024-02-15T07:37:50;6.25;;;2.63;;
37973;SDS011;23796;51.458;7.000;2024-02-15T07:40:21;6.68;;;1.92;;
37973;SDS011;23796;51.458;7.000;2024-02-15T07:42:47;5.05;;;2.30;;
37973;SDS011;23796;51.458;7.000;2024-02-15T07:45:14;8.23;;;2.22;;
37973;SDS011;23796;51.458;7.000;2024-02-15T07:47:39;7.03;;;2.10;;
37973;SDS011;23796;51.458;7.000;2024-02-15T07:50:05;7.05;;;1.92;;
37973;SDS011;23796;51.458;7.000;2024-02-15T07:52:31;6.88;;;2.45;;
37973;SDS011;23796;51.458;7.000;2024-02-15T07:54:58;4.93;;;2.03;;
37973;SDS011;23796;51.458;7.000;2024-02-15T07:57:23;4.78;;;2.05;;
37973;SDS011;23796;51.458;7.000;2024-02-15T07:59:52;5.85;;;2.10;;
37973;SDS011;23796;51.458;7.000;2024-02-15T08:02:18;5.82;;;2.05;;
37973;SDS011;23796;51.458;7.000;2024-02-15T08:04:47;6.28;;;1.90;;
37973;SDS011;23796;51.458;7.000;2024-02-15T08:07:13;7.30;;;2.30;;
37973;SDS011;23796;51.458;7.000;2024-02-15T08:09:39;6.50;;;1.92;;
37973;SDS011;23796;51.458;7.000;2024-02-15T08:12:06;4.88;;;1.77;;
37973;SDS011;23796;51.458;7.000;2024-02-15T08:14:32;6.05;;;1.88;;
37973;SDS011;23796;51.458;7.000;2024-02-15T08:17:00;6.10;;;2.20;;
37973;SDS011;23796;51.458;7.000;2024-02-15T08:19:26;4.75;;;1.92;;
37973;SDS011;23796;51.458;7.000;2024-02-15T08:21:53;6.32;;;1.95;;
37973;SDS011;23796;51.458;7.000;2024-02-15T08:24:19;6.78;;;2.13;;
37973;SDS011;23796;51.458;7.000;2024-02-15T08:26:45;6.40;;;1.73;;
37973;SDS011;23796;51.458;7.000;2024-02-15T08:29:10;6.45;;;2.45;;
37973;SDS011;23796;51.458;7.000;2024-02-15T08:31:37;5.63;;;2.13;;
37973;SDS011;23796;51.458;7.000;2024-02-15T08:34:03;5.70;;;2.17;;
37973;SDS011;23796;51.458;7.000;2024-02-15T08:36:34;6.90;;;2.00;;
37973;SDS011;23796;51.458;7.000;2024-02-15T08:39:00;5.60;;;2.40;;
37973;SDS011;23796;51.458;7.000;2024-02-15T08:41:26;7.32;;;1.73;;
37973;SDS011;23796;51.458;7.000;2024-02-15T08:43:52;6.13;;;2.17;;
37973;SDS011;23796;51.458;7.000;2024-02-15T08:46:18;5.90;;;1.60;;
37973;SDS011;23796;51.458;7.000;2024-02-15T08:48:47;5.35;;;2.00;;
37973;SDS011;23796;51.458;7.000;2024-02-15T08:51:13;5.75;;;1.65;;
37973;SDS011;23796;51.458;7.000;2024-02-15T08:53:38;6.30;;;1.75;;
37973;SDS011;23796;51.458;7.000;2024-02-15T08:56:04;5.70;;;1.63;;
37973;SDS011;23796;51.458;7.000;2024-02-15T08:58:31;7.07;;;2.42;;
37973;SDS011;23796;51.458;7.000;2024-02-15T09:00:57;6.60;;;1.85;;
37973;SDS011;23796;51.458;7.000;2024-02-15T09:03:23;4.38;;;1.30;;
37973;SDS011;23796;51.458;7.000;2024-02-15T09:05:49;5.40;;;1.75;;
37973;SDS011;23796;51.458;7.000;2024-02-15T09:08:15;6.80;;;1.58;;
37973;SDS011;23796;51.458;7.000;2024-02-15T09:10:41;5.75;;;1.90;;
37973;SDS011;23796;51.458;7.000;2024-02-15T09:13:10;5.45;;;1.15;;
37973;SDS011;23796;51.458;7.000;2024-02-15T09:15:35;7.03;;;1.95;;
37973;SDS011;23796;51.458;7.000;2024-02-15T09:18:01;4.60;;;1.65;;
37973;SDS011;23796;51.458;7.000;2024-02-15T09:20:27;5.85;;;1.50;;
37973;SDS011;23796;51.458;7.000;2024-02-15T09:22:56;5.95;;;1.40;;
37973;SDS011;23796;51.458;7.000;2024-02-15T09:25:29;5.60;;;1.70;;
37973;SDS011;23796;51.458;7.000;2024-02-15T09:27:57;6.50;;;1.25;;
37973;SDS011;23796;51.458;7.000;2024-02-15T09:30:23;4.32;;;1.13;;
37973;SDS011;23796;51.458;7.000;2024-02-15T09:32:51;6.22;;;1.50;;
37973;SDS011;23796;51.458;7.000;2024-02-15T09:35:19;6.93;;;1.83;;
37973;SDS011;23796;51.458;7.000;2024-02-15T09:37:46;8.75;;;1.92;;
37973;SDS011;23796;51.458;7.000;2024-02-15T09:40:17;5.30;;;1.48;;
37973;SDS011;23796;51.458;7.000;2024-02-15T09:42:44;6.38;;;1.33;;
37973;SDS011;23796;51.458;7.000;2024-02-15T09:45:11;6.75;;;1.77;;
37973;SDS011;23796;51.458;7.000;2024-02-15T09:47:38;5.28;;;1.45;;
37973;SDS011;23796;51.458;7.000;2024-02-15T09:50:06;4.15;;;1.70;;
37973;SDS011;23796;51.458;7.000;2024-02-15T09:52:33;7.07;;;1.45;;
37973;SDS011;23796;51.458;7.000;2024-02-15T09:55:02;5.90;;;1.42;;
37973;SDS011;23796;51.458;7.000;2024-02-15T09:57:31;7.88;;;1.65;;
37973;SDS011;23796;51.458;7.000;2024-02-15T09:59:58;5.78;;;1.23;;
37973;SDS011;23796;51.458;7.000;2024-02-15T10:02:27;5.32;;;1.45;;
37973;SDS011;23796;51.458;7.000;2024-02-15T10:04:53;5.72;;;1.58;;
37973;SDS011;23796;51.458;7.000;2024-02-15T10:07:25;3.70;;;1.17;;
37973;SDS011;23796;51.458;7.000;2024-02-15T10:09:53;5.50;;;1.38;;
37973;SDS011;23796;51.458;7.000;2024-02-15T10:12:21;4.45;;;1.15;;
37973;SDS011;23796;51.458;7.000;2024-02-15T10:15:01;3.83;;;1.00;;
37973;SDS011;23796;51.458;7.000;2024-02-15T10:17:27;7.00;;;1.58;;
37973;SDS011;23796;51.458;7.000;2024-02-15T10:20:03;6.03;;;1.42;;
37973;SDS011;23796;51.458;7.000;2024-02-15T10:22:30;6.32;;;1.63;;
37973;SDS011;23796;51.458;7.000;2024-02-15T10:25:11;6.80;;;1.30;;
37973;SDS011;23796;51.458;7.000;2024-02-15T10:27:41;4.63;;;1.42;;
37973;SDS011;23796;51.458;7.000;2024-02-15T10:30:16;9.50;;;1.98;;
37973;SDS011;23796;51.458;7.000;2024-02-15T10:32:43;5.32;;;1.30;;
37973;SDS011;23796;51.458;7.000;2024-02-15T10:35:09;5.82;;;1.30;;
37973;SDS011;23796;51.458;7.000;2024-02-15T10:37:40;11.15;;;1.67;;
37973;SDS011;23796;51.458;7.000;2024-02-15T10:40:07;3.97;;;1.15;;
37973;SDS011;23796;51.458;7.000;2024-02-15T10:42:33;4.97;;;1.20;;
37973;SDS011;23796;51.458;7.000;2024-02-15T10:45:04;5.85;;;1.13;;
37973;SDS011;23796;51.458;7.000;2024-02-15T10:47:35;4.22;;;0.90;;
37973;SDS011;23796;51.458;7.000;2024-02-15T10:50:02;6.93;;;1.58;;
37973;SDS011;23796;51.458;7.000;2024-02-15T10:52:30;7.57;;;1.92;;
37973;SDS011;23796;51.458;7.000;2024-02-15T10:54:59;3.78;;;1.27;;
37973;SDS011;23796;51.458;7.000;2024-02-15T10:59:57;3.83;;;1.25;;
37973;SDS011;23796;51.458;7.000;2024-02-15T11:02:29;4.13;;;1.10;;
37973;SDS011;23796;51.458;7.000;2024-02-15T11:05:06;6.07;;;1.35;;
37973;SDS011;23796;51.458;7.000;2024-02-15T11:07:36;4.07;;;1.33;;
37973;SDS011;23796;51.458;7.000;2024-02-15T11:10:04;3.75;;;1.05;;
37973;SDS011;23796;51.458;7.000;2024-02-15T11:12:35;2.70;;;0.88;;
37973;SDS011;23796;51.458;7.000;2024-02-15T11:15:02;4.70;;;1.40;;
37973;SDS011;23796;51.458;7.000;2024-02-15T11:20:10;4.10;;;1.15;;
37973;SDS011;23796;51.458;7.000;2024-02-15T11:22:56;7.00;;;1.50;;
37973;SDS011;23796;51.458;7.000;2024-02-15T11:25:31;6.18;;;1.48;;
37973;SDS011;23796;51.458;7.000;2024-02-15T11:28:09;5.28;;;1.10;;
37973;SDS011;23796;51.458;7.000;2024-02-15T11:30:56;6.03;;;1.60;;
37973;SDS011;23796;51.458;7.000;2024-02-15T11:38:31;4.28;;;1.13;;
37973;SDS011;23796;51.458;7.000;2024-02-15T11:41:04;4.85;;;1.48;;
37973;SDS011;23796;51.458;7.000;2024-02-15T11:46:16;7.30;;;1.73;;
37973;SDS011;23796;51.458;7.000;2024-02-15T11:48:46;4.07;;;1.00;;
37973;SDS011;23796;51.458;7.000;2024-02-15T11:56:30;3.80;;;1.10;;
37973;SDS011;23796;51.458;7.000;2024-02-15T11:59:08;4.65;;;1.25;;
37973;SDS011;23796;51.458;7.000;2024-02-15T12:01:37;6.45;;;1.52;;
37973;SDS011;23796;51.458;7.000;2024-02-15T12:04:22;3.60;;;1.02;;
37973;SDS011;23796;51.458;7.000;2024-02-15T12:07:06;2.83;;;1.02;;
37973;SDS011;23796;51.458;7.000;2024-02-15T12:09:50;5.63;;;1.50;;
37973;SDS011;23796;51.458;7.000;2024-02-15T12:12:50;2.58;;;1.00;;
37973;SDS011;23796;51.458;7.000;2024-02-15T12:15:37;6.25;;;1.60;;
37973;SDS011;23796;51.458;7.000;2024-02-15T12:18:22;2.88;;;0.73;;
37973;SDS011;23796;51.458;7.000;2024-02-15T12:21:08;3.03;;;1.30;;
37973;SDS011;23796;51.458;7.000;2024-02-15T12:23:38;3.22;;;1.08;;
37973;SDS011;23796;51.458;7.000;2024-02-15T12:26:03;5.10;;;1.50;;
37973;SDS011;23796;51.458;7.000;2024-02-15T12:28:32;3.33;;;1.05;;
37973;SDS011;23796;51.458;7.000;2024-02-15T12:31:01;4.47;;;1.77;;
37973;SDS011;23796;51.458;7.000;2024-02-15T12:33:27;6.43;;;1.60;;
37973;SDS011;23796;51.458;7.000;2024-02-15T12:36:06;7.32;;;2.03;;
37973;SDS011;23796;51.458;7.000;2024-02-15T12:38:32;7.75;;;2.10;;
37973;SDS011;23796;51.458;7.000;2024-02-15T12:41:18;5.25;;;1.50;;
37973;SDS011;23796;51.458;7.000;2024-02-15T12:43:46;5.22;;;1.88;;
37973;SDS011;23796;51.458;7.000;2024-02-15T12:46:18;5.22;;;1.13;;
37973;SDS011;23796;51.458;7.000;2024-02-15T12:48:44;4.75;;;1.20;;
37973;SDS011;23796;51.458;7.000;2024-02-15T12:51:13;4.57;;;1.20;;
37973;SDS011;23796;51.458;7.000;2024-02-15T12:53:40;5.30;;;1.35;;
37973;SDS011;23796;51.458;7.000;2024-02-15T12:56:06;4.10;;;1.38;;
37973;SDS011;23796;51.458;7.000;2024-02-15T12:58:34;4.03;;;1.45;;
37973;SDS011;23796;51.458;7.000;2024-02-15T13:01:02;4.18;;;1.20;;
37973;SDS011;23796;51.458;7.000;2024-02-15T13:03:29;6.93;;;1.58;;
37973;SDS011;23796;51.458;7.000;2024-02-15T13:05:57;3.85;;;1.20;;
37973;SDS011;23796;51.458;7.000;2024-02-15T13:08:22;3.03;;;1.00;;
37973;SDS011;23796;51.458;7.000;2024-02-15T13:10:51;4.85;;;1.23;;
37973;SDS011;23796;51.458;7.000;2024-02-15T13:13:18;4.75;;;1.30;;
37973;SDS011;23796;51.458;7.000;2024-02-15T13:15:46;7.07;;;1.88;;
37973;SDS011;23796;51.458;7.000;2024-02-15T13:18:11;5.30;;;1.20;;
37973;SDS011;23796;51.458;7.000;2024-02-15T13:20:38;3.60;;;1.15;;
37973;SDS011;23796;51.458;7.000;2024-02-15T13:23:04;3.10;;;1.00;;
37973;SDS011;23796;51.458;7.000;2024-02-15T13:25:35;3.90;;;1.05;;
37973;SDS011;23796;51.458;7.000;2024-02-15T13:28:04;5.63;;;1.13;;
37973;SDS011;23796;51.458;7.000;2024-02-15T13:30:30;4.82;;;1.33;;
37973;SDS011;23796;51.458;7.000;2024-02-15T13:32:57;5.90;;;1.30;;
37973;SDS011;23796;51.458;7.000;2024-02-15T13:35:25;3.78;;;1.15;;
37973;SDS011;23796;51.458;7.000;2024-02-15T13:37:51;4.32;;;0.90;;
37973;SDS011;23796;51.458;7.000;2024-02-15T13:40:19;4.40;;;1.20;;
37973;SDS011;23796;51.458;7.000;2024-02-15T13:42:48;4.57;;;1.17;;
37973;SDS011;23796;51.458;7.000;2024-02-15T13:45:21;4.05;;;1.10;;
37973;SDS011;23796;51.458;7.000;2024-02-15T13:47:48;2.20;;;0.80;;
37973;SDS011;23796;51.458;7.000;2024-02-15T13:50:18;4.40;;;1.40;;
37973;SDS011;23796;51.458;7.000;2024-02-15T13:52:44;4.97;;;1.27;;
37973;SDS011;23796;51.458;7.000;2024-02-15T13:55:11;3.35;;;0.80;;
37973;SDS011;23796;51.458;7.000;2024-02-15T13:57:38;4.95;;;1.00;;
37973;SDS011;23796;51.458;7.000;2024-02-15T14:00:06;5.40;;;0.98;;
37973;SDS011;23796;51.458;7.000;2024-02-15T14:02:38;3.00;;;1.00;;
37973;SDS011;23796;51.458;7.000;2024-02-15T14:05:04;3.85;;;1.00;;
37973;SDS011;23796;51.458;7.000;2024-02-15T14:07:33;4.95;;;1.23;;
37973;SDS011;23796;51.458;7.000;2024-02-15T14:10:01;3.45;;;1.10;;
37973;SDS011;23796;51.458;7.000;2024-02-15T14:12:27;3.60;;;1.33;;
37973;SDS011;23796;51.458;7.000;2024-02-15T14:14:53;5.40;;;1.15;;
37973;SDS011;23796;51.458;7.000;2024-02-15T14:17:19;4.07;;;1.10;;
37973;SDS011;23796;51.458;7.000;2024-02-15T14:19:48;4.80;;;1.17;;
37973;SDS011;23796;51.458;7.000;2024-02-15T14:22:16;3.65;;;1.33;;
37973;SDS011;23796;51.458;7.000;2024-02-15T14:24:42;3.35;;;1.05;;
37973;SDS011;23796;51.458;7.000;2024-02-15T14:27:11;3.28;;;0.93;;
37973;SDS011;23796;51.458;7.000;2024-02-15T14:29:37;5.85;;;1.42;;
37973;SDS011;23796;51.458;7.000;2024-02-15T14:32:10;6.82;;;1.38;;
37973;SDS011;23796;51.458;7.000;2024-02-15T14:34:54;5.20;;;1.20;;
37973;SDS011;23796;51.458;7.000;2024-02-15T14:37:21;5.65;;;1.23;;
37973;SDS011;23796;51.458;7.000;2024-02-15T14:39:47;4.57;;;1.08;;
37973;SDS011;23796;51.458;7.000;2024-02-15T14:42:12;4.47;;;0.80;;
37973;SDS011;23796;51.458;7.000;2024-02-15T14:44:39;4.68;;;1.05;;
37973;SDS011;23796;51.458;7.000;2024-02-15T14:47:04;3.67;;;1.30;;
37973;SDS011;23796;51.458;7.000;2024-02-15T14:49:33;2.67;;;0.75;;
37973;SDS011;23796;51.458;7.000;2024-02-15T14:52:00;4.57;;;0.93;;
37973;SDS011;23796;51.458;7.000;2024-02-15T14:54:28;4.40;;;0.90;;
37973;SDS011;23796;51.458;7.000;2024-02-15T14:56:54;4.68;;;1.10;;
37973;SDS011;23796;51.458;7.000;2024-02-15T14:59:20;5.85;;;1.10;;
37973;SDS011;23796;51.458;7.000;2024-02-15T15:01:45;3.45;;;1.08;;
37973;SDS011;23796;51.458;7.000;2024-02-15T15:04:11;3.03;;;1.00;;
37973;SDS011;23796;51.458;7.000;2024-02-15T15:06:39;4.15;;;0.90;;
37973;SDS011;23796;51.458;7.000;2024-02-15T15:09:23;5.32;;;0.93;;
37973;SDS011;23796;51.458;7.000;2024-02-15T15:12:07;3.92;;;0.77;;
37973;SDS011;23796;51.458;7.000;2024-02-15T15:14:51;4.00;;;1.00;;